sensor_id;sensor_type;location;lat;lon;timestamp;P1;durP1;ratioP1;P2;durP2;ratioP2
31284;SDS011;56605;51.516;6.742;2023-04-07T00:00:04;4.57;;;2.38;;
31284;SDS011;56605;51.516;6.742;2023-04-07T00:02:30;2.03;;;1.50;;
31284;SDS011;56605;51.516;6.742;2023-04-07T00:04:57;1.45;;;1.35;;
31284;SDS011;56605;51.516;6.742;2023-04-07T00:07:22;3.80;;;2.03;;
31284;SDS011;56605;51.516;6.742;2023-04-07T00:09:48;1.10;;;1.02;;
31284;SDS011;56605;51.516;6.742;2023-04-07T00:12:13;0.30;;;0.30;;
31284;SDS011;56605;51.516;6.742;2023-04-07T00:14:38;4.93;;;3.78;;
31284;SDS011;56605;51.516;6.742;2023-04-07T00:17:03;0.75;;;0.75;;
31284;SDS011;56605;51.516;6.742;2023-04-07T00:19:29;2.00;;;1.23;;
31284;SDS011;56605;51.516;6.742;2023-04-07T00:21:54;3.58;;;1.33;;
31284;SDS011;56605;51.516;6.742;2023-04-07T00:24:19;2.63;;;1.52;;
31284;SDS011;56605;51.516;6.742;2023-04-07T00:26:45;1.77;;;1.25;;
31284;SDS011;56605;51.516;6.742;2023-04-07T00:29:10;0.90;;;0.70;;
31284;SDS011;56605;51.516;6.742;2023-04-07T00:31:35;0.00;;;0.00;;
31284;SDS011;56605;51.516;6.742;2023-04-07T00:34:01;1.85;;;1.45;;
31284;SDS011;56605;51.516;6.742;2023-04-07T00:36:26;1.17;;;1.05;;
31284;SDS011;56605;51.516;6.742;2023-04-07T00:38:52;1.13;;;1.08;;
31284;SDS011;56605;51.516;6.742;2023-04-07T00:41:18;1.08;;;0.75;;
31284;SDS011;56605;51.516;6.742;2023-04-07T00:43:43;2.63;;;1.10;;
31284;SDS011;56605;51.516;6.742;2023-04-07T00:46:09;6.85;;;4.00;;
31284;SDS011;56605;51.516;6.742;2023-04-07T00:48:35;2.13;;;1.30;;
31284;SDS011;56605;51.516;6.742;2023-04-07T00:51:01;0.60;;;0.60;;
31284;SDS011;56605;51.516;6.742;2023-04-07T00:53:27;1.08;;;0.50;;
31284;SDS011;56605;51.516;6.742;2023-04-07T00:55:53;1.90;;;0.98;;
31284;SDS011;56605;51.516;6.742;2023-04-07T00:58:18;1.80;;;1.13;;
31284;SDS011;56605;51.516;6.742;2023-04-07T01:01:04;0.20;;;0.20;;
31284;SDS011;56605;51.516;6.742;2023-04-07T01:03:34;0.00;;;0.00;;
31284;SDS011;56605;51.516;6.742;2023-04-07T01:06:07;3.30;;;2.10;;
31284;SDS011;56605;51.516;6.742;2023-04-07T01:08:45;0.63;;;0.63;;
31284;SDS011;56605;51.516;6.742;2023-04-07T01:14:21;0.63;;;0.63;;
31284;SDS011;56605;51.516;6.742;2023-04-07T01:16:49;0.00;;;0.00;;
31284;SDS011;56605;51.516;6.742;2023-04-07T01:19:32;0.17;;;0.10;;
31284;SDS011;56605;51.516;6.742;2023-04-07T01:22:00;1.10;;;0.98;;
31284;SDS011;56605;51.516;6.742;2023-04-07T01:27:42;0.00;;;0.00;;
31284;SDS011;56605;51.516;6.742;2023-04-07T01:30:18;0.00;;;0.00;;
31284;SDS011;56605;51.516;6.742;2023-04-07T01:32:46;4.20;;;1.90;;
31284;SDS011;56605;51.516;6.742;2023-04-07T01:35:15;2.45;;;1.95;;
31284;SDS011;56605;51.516;6.742;2023-04-07T01:37:41;3.30;;;1.50;;
31284;SDS011;56605;51.516;6.742;2023-04-07T01:40:10;1.60;;;0.77;;
31284;SDS011;56605;51.516;6.742;2023-04-07T01:42:36;2.47;;;2.17;;
31284;SDS011;56605;51.516;6.742;2023-04-07T01:45:03;0.63;;;0.17;;
31284;SDS011;56605;51.516;6.742;2023-04-07T01:47:31;0.55;;;0.55;;
31284;SDS011;56605;51.516;6.742;2023-04-07T01:49:57;0.20;;;0.20;;
31284;SDS011;56605;51.516;6.742;2023-04-07T01:52:25;1.13;;;1.02;;
31284;SDS011;56605;51.516;6.742;2023-04-07T01:54:52;0.57;;;0.38;;
31284;SDS011;56605;51.516;6.742;2023-04-07T01:57:18;0.00;;;0.00;;
31284;SDS011;56605;51.516;6.742;2023-04-07T01:59:43;0.52;;;0.52;;
31284;SDS011;56605;51.516;6.742;2023-04-07T02:02:08;0.68;;;0.68;;
31284;SDS011;56605;51.516;6.742;2023-04-07T02:04:35;1.10;;;0.75;;
31284;SDS011;56605;51.516;6.742;2023-04-07T02:07:08;1.27;;;1.17;;
31284;SDS011;56605;51.516;6.742;2023-04-07T02:09:39;1.05;;;1.00;;
31284;SDS011;56605;51.516;6.742;2023-04-07T02:12:07;0.55;;;0.28;;
31284;SDS011;56605;51.516;6.742;2023-04-07T02:14:35;7.43;;;3.55;;
31284;SDS011;56605;51.516;6.742;2023-04-07T02:17:02;0.50;;;0.50;;
31284;SDS011;56605;51.516;6.742;2023-04-07T02:19:29;2.28;;;0.47;;
31284;SDS011;56605;51.516;6.742;2023-04-07T02:21:54;3.00;;;2.65;;
31284;SDS011;56605;51.516;6.742;2023-04-07T02:24:20;1.02;;;0.93;;
31284;SDS011;56605;51.516;6.742;2023-04-07T02:26:46;0.03;;;0.03;;
31284;SDS011;56605;51.516;6.742;2023-04-07T02:29:12;2.30;;;1.85;;
31284;SDS011;56605;51.516;6.742;2023-04-07T02:31:37;1.13;;;0.60;;
31284;SDS011;56605;51.516;6.742;2023-04-07T02:34:03;11.93;;;5.88;;
31284;SDS011;56605;51.516;6.742;2023-04-07T02:36:28;3.42;;;1.95;;
31284;SDS011;56605;51.516;6.742;2023-04-07T02:38:53;1.38;;;1.05;;
31284;SDS011;56605;51.516;6.742;2023-04-07T02:41:18;0.47;;;0.43;;
31284;SDS011;56605;51.516;6.742;2023-04-07T02:43:45;2.08;;;1.65;;
31284;SDS011;56605;51.516;6.742;2023-04-07T02:46:10;2.40;;;2.20;;
31284;SDS011;56605;51.516;6.742;2023-04-07T02:48:35;1.75;;;1.48;;
31284;SDS011;56605;51.516;6.742;2023-04-07T02:51:01;1.42;;;0.95;;
31284;SDS011;56605;51.516;6.742;2023-04-07T02:53:26;1.63;;;0.90;;
31284;SDS011;56605;51.516;6.742;2023-04-07T02:55:51;9.57;;;4.00;;
31284;SDS011;56605;51.516;6.742;2023-04-07T02:58:16;1.52;;;0.57;;
31284;SDS011;56605;51.516;6.742;2023-04-07T03:00:42;0.47;;;0.47;;
31284;SDS011;56605;51.516;6.742;2023-04-07T03:03:07;0.98;;;0.93;;
31284;SDS011;56605;51.516;6.742;2023-04-07T03:05:32;3.78;;;2.95;;
31284;SDS011;56605;51.516;6.742;2023-04-07T03:07:58;3.65;;;3.30;;
31284;SDS011;56605;51.516;6.742;2023-04-07T03:10:23;1.05;;;0.93;;
31284;SDS011;56605;51.516;6.742;2023-04-07T03:12:48;2.47;;;2.28;;
31284;SDS011;56605;51.516;6.742;2023-04-07T03:15:13;6.68;;;3.08;;
31284;SDS011;56605;51.516;6.742;2023-04-07T03:17:41;13.20;;;5.18;;
31284;SDS011;56605;51.516;6.742;2023-04-07T03:20:07;4.55;;;2.83;;
31284;SDS011;56605;51.516;6.742;2023-04-07T03:22:32;2.60;;;0.98;;
31284;SDS011;56605;51.516;6.742;2023-04-07T03:24:58;6.05;;;3.78;;
31284;SDS011;56605;51.516;6.742;2023-04-07T03:27:23;0.80;;;0.80;;
31284;SDS011;56605;51.516;6.742;2023-04-07T03:29:48;4.30;;;3.10;;
31284;SDS011;56605;51.516;6.742;2023-04-07T03:32:15;1.63;;;1.52;;
31284;SDS011;56605;51.516;6.742;2023-04-07T03:34:41;1.58;;;1.48;;
31284;SDS011;56605;51.516;6.742;2023-04-07T03:37:06;12.43;;;6.47;;
31284;SDS011;56605;51.516;6.742;2023-04-07T03:39:31;28.63;;;11.15;;
31284;SDS011;56605;51.516;6.742;2023-04-07T03:41:57;3.28;;;2.63;;
31284;SDS011;56605;51.516;6.742;2023-04-07T03:44:22;2.00;;;1.30;;
31284;SDS011;56605;51.516;6.742;2023-04-07T03:46:47;15.75;;;6.43;;
31284;SDS011;56605;51.516;6.742;2023-04-07T03:49:14;3.05;;;2.75;;
31284;SDS011;56605;51.516;6.742;2023-04-07T03:51:40;7.15;;;3.80;;
31284;SDS011;56605;51.516;6.742;2023-04-07T03:54:05;33.53;;;13.98;;
31284;SDS011;56605;51.516;6.742;2023-04-07T03:56:31;21.55;;;10.60;;
31284;SDS011;56605;51.516;6.742;2023-04-07T03:58:56;30.40;;;13.85;;
31284;SDS011;56605;51.516;6.742;2023-04-07T04:01:21;29.88;;;12.23;;
31284;SDS011;56605;51.516;6.742;2023-04-07T04:03:48;27.48;;;12.07;;
31284;SDS011;56605;51.516;6.742;2023-04-07T04:06:13;30.15;;;12.80;;
31284;SDS011;56605;51.516;6.742;2023-04-07T04:08:39;28.38;;;12.75;;
31284;SDS011;56605;51.516;6.742;2023-04-07T04:11:04;28.98;;;13.30;;
31284;SDS011;56605;51.516;6.742;2023-04-07T04:13:29;28.38;;;12.32;;
31284;SDS011;56605;51.516;6.742;2023-04-07T04:15:55;32.10;;;12.82;;
31284;SDS011;56605;51.516;6.742;2023-04-07T04:18:21;33.65;;;14.18;;
31284;SDS011;56605;51.516;6.742;2023-04-07T04:20:46;33.00;;;13.77;;
31284;SDS011;56605;51.516;6.742;2023-04-07T04:23:12;25.05;;;12.65;;
31284;SDS011;56605;51.516;6.742;2023-04-07T04:25:38;28.85;;;12.30;;
31284;SDS011;56605;51.516;6.742;2023-04-07T04:28:04;35.50;;;13.95;;
31284;SDS011;56605;51.516;6.742;2023-04-07T04:30:30;31.95;;;14.15;;
31284;SDS011;56605;51.516;6.742;2023-04-07T04:32:55;27.85;;;12.65;;
31284;SDS011;56605;51.516;6.742;2023-04-07T04:35:21;34.30;;;13.88;;
31284;SDS011;56605;51.516;6.742;2023-04-07T04:37:48;28.98;;;12.05;;
31284;SDS011;56605;51.516;6.742;2023-04-07T04:40:19;31.38;;;12.25;;
31284;SDS011;56605;51.516;6.742;2023-04-07T04:42:48;22.58;;;10.10;;
31284;SDS011;56605;51.516;6.742;2023-04-07T04:48:08;31.98;;;11.65;;
31284;SDS011;56605;51.516;6.742;2023-04-07T04:50:35;29.85;;;11.55;;
31284;SDS011;56605;51.516;6.742;2023-04-07T04:53:02;28.17;;;11.48;;
31284;SDS011;56605;51.516;6.742;2023-04-07T04:55:28;29.60;;;13.25;;
31284;SDS011;56605;51.516;6.742;2023-04-07T04:57:55;27.33;;;11.77;;
31284;SDS011;56605;51.516;6.742;2023-04-07T05:00:22;29.88;;;12.45;;
31284;SDS011;56605;51.516;6.742;2023-04-07T05:02:48;26.02;;;10.77;;
31284;SDS011;56605;51.516;6.742;2023-04-07T05:05:15;29.02;;;11.40;;
31284;SDS011;56605;51.516;6.742;2023-04-07T05:07:42;32.42;;;13.02;;
31284;SDS011;56605;51.516;6.742;2023-04-07T05:10:09;26.17;;;11.40;;
31284;SDS011;56605;51.516;6.742;2023-04-07T05:12:36;31.60;;;11.43;;
31284;SDS011;56605;51.516;6.742;2023-04-07T05:15:03;30.52;;;12.40;;
31284;SDS011;56605;51.516;6.742;2023-04-07T05:19:55;32.63;;;13.00;;
31284;SDS011;56605;51.516;6.742;2023-04-07T05:22:20;29.60;;;12.98;;
31284;SDS011;56605;51.516;6.742;2023-04-07T05:24:45;31.65;;;13.05;;
31284;SDS011;56605;51.516;6.742;2023-04-07T05:27:11;28.65;;;11.63;;
31284;SDS011;56605;51.516;6.742;2023-04-07T05:29:36;29.10;;;11.95;;
31284;SDS011;56605;51.516;6.742;2023-04-07T05:32:03;30.83;;;11.77;;
31284;SDS011;56605;51.516;6.742;2023-04-07T05:34:29;28.05;;;11.55;;
31284;SDS011;56605;51.516;6.742;2023-04-07T05:36:55;29.15;;;11.40;;
31284;SDS011;56605;51.516;6.742;2023-04-07T05:39:20;2.90;;;1.35;;
31284;SDS011;56605;51.516;6.742;2023-04-07T05:41:45;9.45;;;3.97;;
31284;SDS011;56605;51.516;6.742;2023-04-07T05:44:11;0.85;;;0.35;;
31284;SDS011;56605;51.516;6.742;2023-04-07T05:46:36;12.18;;;5.75;;
31284;SDS011;56605;51.516;6.742;2023-04-07T05:49:02;26.25;;;9.13;;
31284;SDS011;56605;51.516;6.742;2023-04-07T05:51:27;31.17;;;11.30;;
31284;SDS011;56605;51.516;6.742;2023-04-07T05:53:53;25.95;;;10.63;;
31284;SDS011;56605;51.516;6.742;2023-04-07T05:56:18;31.42;;;11.48;;
31284;SDS011;56605;51.516;6.742;2023-04-07T05:58:43;33.42;;;11.60;;
31284;SDS011;56605;51.516;6.742;2023-04-07T06:01:09;25.45;;;10.38;;
31284;SDS011;56605;51.516;6.742;2023-04-07T06:03:34;34.45;;;12.00;;
31284;SDS011;56605;51.516;6.742;2023-04-07T06:05:59;27.08;;;11.10;;
31284;SDS011;56605;51.516;6.742;2023-04-07T06:08:25;28.13;;;10.95;;
31284;SDS011;56605;51.516;6.742;2023-04-07T06:10:51;23.40;;;9.20;;
31284;SDS011;56605;51.516;6.742;2023-04-07T06:13:16;24.20;;;7.38;;
31284;SDS011;56605;51.516;6.742;2023-04-07T06:15:41;28.08;;;10.73;;
31284;SDS011;56605;51.516;6.742;2023-04-07T06:18:07;31.05;;;10.98;;
31284;SDS011;56605;51.516;6.742;2023-04-07T06:20:32;31.90;;;11.68;;
31284;SDS011;56605;51.516;6.742;2023-04-07T06:22:57;32.20;;;11.35;;
31284;SDS011;56605;51.516;6.742;2023-04-07T06:25:23;32.38;;;11.50;;
31284;SDS011;56605;51.516;6.742;2023-04-07T06:27:48;28.02;;;11.10;;
31284;SDS011;56605;51.516;6.742;2023-04-07T06:30:14;28.20;;;10.48;;
31284;SDS011;56605;51.516;6.742;2023-04-07T06:32:40;25.50;;;10.45;;
31284;SDS011;56605;51.516;6.742;2023-04-07T06:35:05;26.63;;;8.95;;
31284;SDS011;56605;51.516;6.742;2023-04-07T06:37:31;30.83;;;11.10;;
31284;SDS011;56605;51.516;6.742;2023-04-07T06:39:56;27.08;;;9.68;;
31284;SDS011;56605;51.516;6.742;2023-04-07T06:42:22;27.25;;;10.88;;
31284;SDS011;56605;51.516;6.742;2023-04-07T06:44:50;30.13;;;12.07;;
31284;SDS011;56605;51.516;6.742;2023-04-07T06:47:15;26.70;;;11.18;;
31284;SDS011;56605;51.516;6.742;2023-04-07T06:49:40;26.65;;;11.00;;
31284;SDS011;56605;51.516;6.742;2023-04-07T06:52:06;33.25;;;11.52;;
31284;SDS011;56605;51.516;6.742;2023-04-07T06:54:31;31.15;;;12.70;;
31284;SDS011;56605;51.516;6.742;2023-04-07T06:56:56;28.10;;;11.55;;
31284;SDS011;56605;51.516;6.742;2023-04-07T06:59:22;28.20;;;10.25;;
31284;SDS011;56605;51.516;6.742;2023-04-07T07:01:47;26.83;;;10.77;;
31284;SDS011;56605;51.516;6.742;2023-04-07T07:04:13;23.60;;;10.30;;
31284;SDS011;56605;51.516;6.742;2023-04-07T07:06:38;28.70;;;11.20;;
31284;SDS011;56605;51.516;6.742;2023-04-07T07:09:04;30.05;;;10.45;;
31284;SDS011;56605;51.516;6.742;2023-04-07T07:11:32;28.13;;;10.88;;
31284;SDS011;56605;51.516;6.742;2023-04-07T07:13:58;26.85;;;10.20;;
31284;SDS011;56605;51.516;6.742;2023-04-07T07:16:23;25.52;;;10.63;;
31284;SDS011;56605;51.516;6.742;2023-04-07T07:18:48;27.60;;;10.15;;
31284;SDS011;56605;51.516;6.742;2023-04-07T07:21:15;31.65;;;10.07;;
31284;SDS011;56605;51.516;6.742;2023-04-07T07:23:41;24.65;;;9.02;;
31284;SDS011;56605;51.516;6.742;2023-04-07T07:26:07;15.27;;;4.22;;
31284;SDS011;56605;51.516;6.742;2023-04-07T07:28:32;30.15;;;9.82;;
31284;SDS011;56605;51.516;6.742;2023-04-07T07:30:57;27.10;;;10.77;;
31284;SDS011;56605;51.516;6.742;2023-04-07T07:33:22;22.52;;;8.98;;
31284;SDS011;56605;51.516;6.742;2023-04-07T07:35:48;30.52;;;11.57;;
31284;SDS011;56605;51.516;6.742;2023-04-07T07:38:13;25.55;;;10.73;;
31284;SDS011;56605;51.516;6.742;2023-04-07T07:40:38;20.73;;;9.00;;
31284;SDS011;56605;51.516;6.742;2023-04-07T07:43:04;24.50;;;10.43;;
31284;SDS011;56605;51.516;6.742;2023-04-07T07:45:30;27.33;;;9.95;;
31284;SDS011;56605;51.516;6.742;2023-04-07T07:47:55;24.77;;;11.45;;
31284;SDS011;56605;51.516;6.742;2023-04-07T07:50:20;23.38;;;9.57;;
31284;SDS011;56605;51.516;6.742;2023-04-07T07:52:46;25.40;;;10.10;;
31284;SDS011;56605;51.516;6.742;2023-04-07T07:55:11;26.23;;;10.45;;
31284;SDS011;56605;51.516;6.742;2023-04-07T07:57:37;27.58;;;11.02;;
31284;SDS011;56605;51.516;6.742;2023-04-07T08:00:02;25.25;;;9.82;;
31284;SDS011;56605;51.516;6.742;2023-04-07T08:02:28;24.27;;;10.05;;
31284;SDS011;56605;51.516;6.742;2023-04-07T08:04:56;23.23;;;10.25;;
31284;SDS011;56605;51.516;6.742;2023-04-07T08:07:22;26.73;;;10.95;;
31284;SDS011;56605;51.516;6.742;2023-04-07T08:09:47;25.02;;;11.30;;
31284;SDS011;56605;51.516;6.742;2023-04-07T08:12:13;27.20;;;12.00;;
31284;SDS011;56605;51.516;6.742;2023-04-07T08:14:39;23.85;;;10.48;;
31284;SDS011;56605;51.516;6.742;2023-04-07T08:17:05;24.63;;;10.50;;
31284;SDS011;56605;51.516;6.742;2023-04-07T08:19:30;30.00;;;10.85;;
31284;SDS011;56605;51.516;6.742;2023-04-07T08:21:55;29.85;;;10.95;;
31284;SDS011;56605;51.516;6.742;2023-04-07T08:24:20;27.48;;;11.60;;
31284;SDS011;56605;51.516;6.742;2023-04-07T08:26:46;26.77;;;10.73;;
31284;SDS011;56605;51.516;6.742;2023-04-07T08:29:11;27.38;;;9.57;;
31284;SDS011;56605;51.516;6.742;2023-04-07T08:31:37;27.58;;;11.15;;
31284;SDS011;56605;51.516;6.742;2023-04-07T08:34:02;32.40;;;11.23;;
31284;SDS011;56605;51.516;6.742;2023-04-07T08:36:27;26.80;;;10.73;;
31284;SDS011;56605;51.516;6.742;2023-04-07T08:38:54;24.25;;;11.15;;
31284;SDS011;56605;51.516;6.742;2023-04-07T08:41:22;25.52;;;10.60;;
31284;SDS011;56605;51.516;6.742;2023-04-07T08:43:51;24.73;;;10.38;;
31284;SDS011;56605;51.516;6.742;2023-04-07T08:46:18;21.23;;;8.80;;
31284;SDS011;56605;51.516;6.742;2023-04-07T08:48:46;25.80;;;10.60;;
31284;SDS011;56605;51.516;6.742;2023-04-07T08:51:15;24.25;;;10.65;;
31284;SDS011;56605;51.516;6.742;2023-04-07T08:53:51;23.20;;;10.30;;
31284;SDS011;56605;51.516;6.742;2023-04-07T08:56:18;21.85;;;9.07;;
31284;SDS011;56605;51.516;6.742;2023-04-07T08:58:47;28.70;;;9.13;;
31284;SDS011;56605;51.516;6.742;2023-04-07T09:01:13;22.38;;;8.85;;
31284;SDS011;56605;51.516;6.742;2023-04-07T09:03:40;19.52;;;9.50;;
31284;SDS011;56605;51.516;6.742;2023-04-07T09:06:06;22.52;;;8.98;;
31284;SDS011;56605;51.516;6.742;2023-04-07T09:08:34;20.50;;;9.65;;
31284;SDS011;56605;51.516;6.742;2023-04-07T09:11:01;23.90;;;8.10;;
31284;SDS011;56605;51.516;6.742;2023-04-07T09:13:26;22.63;;;9.82;;
31284;SDS011;56605;51.516;6.742;2023-04-07T09:15:52;22.33;;;9.73;;
31284;SDS011;56605;51.516;6.742;2023-04-07T09:18:18;26.17;;;9.63;;
31284;SDS011;56605;51.516;6.742;2023-04-07T09:20:59;30.42;;;11.70;;
31284;SDS011;56605;51.516;6.742;2023-04-07T09:23:26;29.02;;;11.15;;
31284;SDS011;56605;51.516;6.742;2023-04-07T09:25:55;30.48;;;11.43;;
31284;SDS011;56605;51.516;6.742;2023-04-07T09:28:23;24.98;;;11.13;;
31284;SDS011;56605;51.516;6.742;2023-04-07T09:30:52;24.50;;;11.07;;
31284;SDS011;56605;51.516;6.742;2023-04-07T09:33:25;35.60;;;11.23;;
31284;SDS011;56605;51.516;6.742;2023-04-07T09:35:52;26.98;;;10.98;;
31284;SDS011;56605;51.516;6.742;2023-04-07T09:38:18;30.05;;;11.05;;
31284;SDS011;56605;51.516;6.742;2023-04-07T09:40:43;26.33;;;11.90;;
31284;SDS011;56605;51.516;6.742;2023-04-07T09:43:13;32.17;;;12.60;;
31284;SDS011;56605;51.516;6.742;2023-04-07T09:45:40;28.90;;;14.73;;
31284;SDS011;56605;51.516;6.742;2023-04-07T09:48:17;26.77;;;13.20;;
31284;SDS011;56605;51.516;6.742;2023-04-07T09:51:08;31.02;;;11.93;;
31284;SDS011;56605;51.516;6.742;2023-04-07T09:53:40;30.42;;;13.00;;
31284;SDS011;56605;51.516;6.742;2023-04-07T09:56:08;30.20;;;11.45;;
31284;SDS011;56605;51.516;6.742;2023-04-07T09:58:34;24.13;;;10.85;;
31284;SDS011;56605;51.516;6.742;2023-04-07T10:01:04;28.58;;;11.88;;
31284;SDS011;56605;51.516;6.742;2023-04-07T10:03:32;26.35;;;12.27;;
31284;SDS011;56605;51.516;6.742;2023-04-07T10:05:58;28.75;;;11.43;;
31284;SDS011;56605;51.516;6.742;2023-04-07T10:08:25;27.50;;;12.13;;
31284;SDS011;56605;51.516;6.742;2023-04-07T10:10:51;27.00;;;11.77;;
31284;SDS011;56605;51.516;6.742;2023-04-07T10:13:17;29.83;;;11.70;;
31284;SDS011;56605;51.516;6.742;2023-04-07T10:15:43;30.95;;;12.38;;
31284;SDS011;56605;51.516;6.742;2023-04-07T10:18:08;21.75;;;11.23;;
31284;SDS011;56605;51.516;6.742;2023-04-07T10:20:34;23.65;;;10.00;;
31284;SDS011;56605;51.516;6.742;2023-04-07T10:23:08;28.48;;;9.60;;
31284;SDS011;56605;51.516;6.742;2023-04-07T10:25:47;25.00;;;9.77;;
31284;SDS011;56605;51.516;6.742;2023-04-07T10:28:15;23.50;;;8.65;;
31284;SDS011;56605;51.516;6.742;2023-04-07T10:30:42;29.33;;;9.50;;
31284;SDS011;56605;51.516;6.742;2023-04-07T10:33:09;25.00;;;10.50;;
31284;SDS011;56605;51.516;6.742;2023-04-07T10:38:28;21.02;;;8.90;;
31284;SDS011;56605;51.516;6.742;2023-04-07T10:40:53;17.00;;;8.65;;
31284;SDS011;56605;51.516;6.742;2023-04-07T10:43:52;20.00;;;8.57;;
31284;SDS011;56605;51.516;6.742;2023-04-07T10:46:10;21.95;;;8.82;;
31284;SDS011;56605;51.516;6.742;2023-04-07T10:48:35;20.35;;;9.10;;
31284;SDS011;56605;51.516;6.742;2023-04-07T10:53:30;19.92;;;8.27;;
31284;SDS011;56605;51.516;6.742;2023-04-07T10:55:56;17.13;;;8.10;;
31284;SDS011;56605;51.516;6.742;2023-04-07T10:58:26;19.05;;;8.15;;
31284;SDS011;56605;51.516;6.742;2023-04-07T11:03:33;15.75;;;7.20;;
31284;SDS011;56605;51.516;6.742;2023-04-07T11:06:03;24.17;;;7.85;;
31284;SDS011;56605;51.516;6.742;2023-04-07T11:08:36;20.42;;;8.98;;
31284;SDS011;56605;51.516;6.742;2023-04-07T11:11:06;15.88;;;6.85;;
31284;SDS011;56605;51.516;6.742;2023-04-07T11:13:49;17.92;;;7.63;;
31284;SDS011;56605;51.516;6.742;2023-04-07T11:16:15;15.90;;;7.00;;
31284;SDS011;56605;51.516;6.742;2023-04-07T11:18:42;20.80;;;6.78;;
31284;SDS011;56605;51.516;6.742;2023-04-07T11:21:09;13.68;;;6.38;;
31284;SDS011;56605;51.516;6.742;2023-04-07T11:23:41;14.35;;;6.82;;
31284;SDS011;56605;51.516;6.742;2023-04-07T11:26:08;14.10;;;6.55;;
31284;SDS011;56605;51.516;6.742;2023-04-07T11:28:45;18.42;;;7.53;;
31284;SDS011;56605;51.516;6.742;2023-04-07T11:31:11;14.48;;;6.63;;
31284;SDS011;56605;51.516;6.742;2023-04-07T11:33:37;19.00;;;7.80;;
31284;SDS011;56605;51.516;6.742;2023-04-07T11:36:04;16.63;;;7.88;;
31284;SDS011;56605;51.516;6.742;2023-04-07T11:38:35;16.42;;;7.65;;
31284;SDS011;56605;51.516;6.742;2023-04-07T11:41:11;12.60;;;7.55;;
31284;SDS011;56605;51.516;6.742;2023-04-07T11:43:38;19.40;;;8.60;;
31284;SDS011;56605;51.516;6.742;2023-04-07T11:48:34;17.13;;;7.88;;
31284;SDS011;56605;51.516;6.742;2023-04-07T11:51:01;16.90;;;9.27;;
31284;SDS011;56605;51.516;6.742;2023-04-07T11:53:34;20.63;;;8.77;;
31284;SDS011;56605;51.516;6.742;2023-04-07T11:56:02;18.35;;;8.05;;
31284;SDS011;56605;51.516;6.742;2023-04-07T11:58:30;14.80;;;8.00;;
31284;SDS011;56605;51.516;6.742;2023-04-07T12:00:56;20.58;;;9.75;;
31284;SDS011;56605;51.516;6.742;2023-04-07T12:03:23;20.38;;;8.85;;
31284;SDS011;56605;51.516;6.742;2023-04-07T12:05:48;20.33;;;9.45;;
31284;SDS011;56605;51.516;6.742;2023-04-07T12:08:14;19.50;;;7.68;;
31284;SDS011;56605;51.516;6.742;2023-04-07T12:10:43;20.77;;;8.55;;
31284;SDS011;56605;51.516;6.742;2023-04-07T12:13:11;16.45;;;8.73;;
31284;SDS011;56605;51.516;6.742;2023-04-07T12:15:37;15.05;;;8.43;;
31284;SDS011;56605;51.516;6.742;2023-04-07T12:18:02;14.75;;;8.07;;
31284;SDS011;56605;51.516;6.742;2023-04-07T12:20:28;16.80;;;8.50;;
31284;SDS011;56605;51.516;6.742;2023-04-07T12:22:53;20.67;;;8.27;;
31284;SDS011;56605;51.516;6.742;2023-04-07T12:25:19;19.30;;;9.07;;
31284;SDS011;56605;51.516;6.742;2023-04-07T12:27:44;17.70;;;9.02;;
31284;SDS011;56605;51.516;6.742;2023-04-07T12:30:10;25.23;;;10.52;;
31284;SDS011;56605;51.516;6.742;2023-04-07T12:32:36;20.38;;;9.07;;
31284;SDS011;56605;51.516;6.742;2023-04-07T12:35:02;18.27;;;9.85;;
31284;SDS011;56605;51.516;6.742;2023-04-07T12:37:27;19.25;;;9.23;;
31284;SDS011;56605;51.516;6.742;2023-04-07T12:39:52;23.83;;;10.80;;
31284;SDS011;56605;51.516;6.742;2023-04-07T12:42:18;18.02;;;9.88;;
31284;SDS011;56605;51.516;6.742;2023-04-07T12:44:43;25.38;;;10.40;;
31284;SDS011;56605;51.516;6.742;2023-04-07T12:47:08;20.58;;;9.48;;
31284;SDS011;56605;51.516;6.742;2023-04-07T12:49:36;19.92;;;10.02;;
31284;SDS011;56605;51.516;6.742;2023-04-07T12:52:01;27.83;;;10.57;;
31284;SDS011;56605;51.516;6.742;2023-04-07T12:54:26;23.17;;;10.52;;
31284;SDS011;56605;51.516;6.742;2023-04-07T12:56:52;24.08;;;10.05;;
31284;SDS011;56605;51.516;6.742;2023-04-07T12:59:18;22.27;;;11.05;;
31284;SDS011;56605;51.516;6.742;2023-04-07T13:01:43;20.50;;;10.27;;
31284;SDS011;56605;51.516;6.742;2023-04-07T13:04:09;19.23;;;9.98;;
31284;SDS011;56605;51.516;6.742;2023-04-07T13:06:34;22.70;;;12.00;;
31284;SDS011;56605;51.516;6.742;2023-04-07T13:09:00;21.80;;;11.68;;
31284;SDS011;56605;51.516;6.742;2023-04-07T13:11:25;19.48;;;10.20;;
31284;SDS011;56605;51.516;6.742;2023-04-07T13:13:51;22.85;;;10.57;;
31284;SDS011;56605;51.516;6.742;2023-04-07T13:16:17;24.90;;;11.35;;
31284;SDS011;56605;51.516;6.742;2023-04-07T13:18:42;32.13;;;12.50;;
31284;SDS011;56605;51.516;6.742;2023-04-07T13:21:08;21.63;;;10.35;;
31284;SDS011;56605;51.516;6.742;2023-04-07T13:23:34;20.55;;;9.20;;
31284;SDS011;56605;51.516;6.742;2023-04-07T13:26:00;19.17;;;10.25;;
31284;SDS011;56605;51.516;6.742;2023-04-07T13:28:26;17.05;;;9.20;;
31284;SDS011;56605;51.516;6.742;2023-04-07T13:30:51;22.02;;;9.77;;
31284;SDS011;56605;51.516;6.742;2023-04-07T13:33:17;20.25;;;9.43;;
31284;SDS011;56605;51.516;6.742;2023-04-07T13:35:42;16.33;;;8.00;;
31284;SDS011;56605;51.516;6.742;2023-04-07T13:38:07;22.67;;;9.02;;
31284;SDS011;56605;51.516;6.742;2023-04-07T13:40:33;20.80;;;8.55;;
31284;SDS011;56605;51.516;6.742;2023-04-07T13:42:58;18.13;;;7.80;;
31284;SDS011;56605;51.516;6.742;2023-04-07T13:45:24;15.45;;;8.18;;
31284;SDS011;56605;51.516;6.742;2023-04-07T13:47:50;18.40;;;8.05;;
31284;SDS011;56605;51.516;6.742;2023-04-07T13:50:16;17.55;;;8.75;;
31284;SDS011;56605;51.516;6.742;2023-04-07T13:52:41;17.38;;;7.80;;
31284;SDS011;56605;51.516;6.742;2023-04-07T13:55:06;19.13;;;8.40;;
31284;SDS011;56605;51.516;6.742;2023-04-07T13:57:32;16.08;;;7.93;;
31284;SDS011;56605;51.516;6.742;2023-04-07T13:59:57;22.02;;;8.52;;
31284;SDS011;56605;51.516;6.742;2023-04-07T14:02:24;18.00;;;7.60;;
31284;SDS011;56605;51.516;6.742;2023-04-07T14:04:51;21.83;;;9.27;;
31284;SDS011;56605;51.516;6.742;2023-04-07T14:07:17;19.15;;;9.68;;
31284;SDS011;56605;51.516;6.742;2023-04-07T14:09:43;23.05;;;10.07;;
31284;SDS011;56605;51.516;6.742;2023-04-07T14:12:08;25.70;;;11.88;;
31284;SDS011;56605;51.516;6.742;2023-04-07T14:14:33;22.85;;;10.60;;
31284;SDS011;56605;51.516;6.742;2023-04-07T14:17:01;25.77;;;11.63;;
31284;SDS011;56605;51.516;6.742;2023-04-07T14:19:27;28.70;;;11.57;;
31284;SDS011;56605;51.516;6.742;2023-04-07T14:21:53;24.38;;;12.00;;
31284;SDS011;56605;51.516;6.742;2023-04-07T14:24:19;23.67;;;10.90;;
31284;SDS011;56605;51.516;6.742;2023-04-07T14:26:45;23.45;;;11.43;;
31284;SDS011;56605;51.516;6.742;2023-04-07T14:29:11;33.33;;;12.27;;
31284;SDS011;56605;51.516;6.742;2023-04-07T14:31:36;28.95;;;12.75;;
31284;SDS011;56605;51.516;6.742;2023-04-07T14:34:02;32.05;;;12.35;;
31284;SDS011;56605;51.516;6.742;2023-04-07T14:36:27;28.77;;;12.00;;
31284;SDS011;56605;51.516;6.742;2023-04-07T14:38:53;26.38;;;13.15;;
31284;SDS011;56605;51.516;6.742;2023-04-07T14:41:19;34.85;;;13.88;;
31284;SDS011;56605;51.516;6.742;2023-04-07T14:43:44;30.20;;;11.88;;
31284;SDS011;56605;51.516;6.742;2023-04-07T14:46:11;34.38;;;12.40;;
31284;SDS011;56605;51.516;6.742;2023-04-07T14:48:38;26.80;;;12.20;;